TimeCDT,TemperatureF,Dew PointF,Humidity,Sea Level PressureIn,VisibilityMPH,Wind Direction,Wind SpeedMPH,Gust SpeedMPH,PrecipitationIn,Events,Conditions,WindDirDegrees,DateUTC
12:52 AM,73.0,69.1,87,29.67,9.0,South,6.9,-,N/A,,Clear,180,2013-06-26 05:52:00
1:52 AM,71.1,69.1,93,29.66,7.0,South,4.6,-,N/A,,Clear,170,2013-06-26 06:52:00
2:52 AM,70.0,68.0,93,29.65,6.0,Calm,Calm,-,N/A,,Scattered Clouds,0,2013-06-26 07:52:00
3:06 AM,71.6,69.8,94,29.68,6.0,SSE,3.5,-,N/A,,Mostly Cloudy,150,2013-06-26 08:06:00
3:13 AM,71.6,69.8,94,29.68,6.0,SSE,3.5,-,N/A,,Mostly Cloudy,160,2013-06-26 08:13:00
3:52 AM,71.1,69.1,93,29.66,6.0,South,4.6,-,N/A,,Scattered Clouds,170,2013-06-26 08:52:00
4:52 AM,71.1,69.1,93,29.65,5.0,SSE,5.8,-,N/A,,Mostly Cloudy,160,2013-06-26 09:52:00
5:52 AM,72.0,70.0,93,29.66,4.0,South,4.6,-,N/A,,Overcast,190,2013-06-26 10:52:00
6:35 AM,71.6,71.6,100,29.70,2.5,Calm,Calm,-,N/A,,Mostly Cloudy,0,2013-06-26 11:35:00
6:43 AM,73.4,69.8,88,29.71,3.0,Calm,Calm,-,N/A,,Mostly Cloudy,0,2013-06-26 11:43:00
6:52 AM,73.0,71.1,93,29.68,3.0,Calm,Calm,-,N/A,,Mostly Cloudy,0,2013-06-26 11:52:00
7:34 AM,73.4,71.6,94,29.72,4.0,WSW,3.5,-,N/A,Thunderstorm,Partly Cloudy,240,2013-06-26 12:34:00
7:52 AM,75.0,72.0,90,29.69,5.0,WSW,3.5,-,N/A,,Clear,250,2013-06-26 12:52:00
8:52 AM,79.0,72.0,79,29.70,8.0,NW,10.4,-,N/A,,Partly Cloudy,310,2013-06-26 13:52:00
9:52 AM,81.0,70.0,69,29.71,10.0,NNW,10.4,-,N/A,,Mostly Cloudy,330,2013-06-26 14:52:00
9:59 AM,80.6,71.6,74,29.75,10.0,WNW,11.5,-,N/A,,Scattered Clouds,300,2013-06-26 14:59:00
10:52 AM,82.9,70.0,65,29.73,10.0,NW,13.8,-,N/A,,Clear,310,2013-06-26 15:52:00
11:44 AM,84.2,69.8,62,29.78,10.0,NW,13.8,-,N/A,,Mostly Cloudy,310,2013-06-26 16:44:00
11:52 AM,84.0,69.1,61,29.74,10.0,NNW,10.4,-,N/A,,Scattered Clouds,330,2013-06-26 16:52:00
12:52 PM,84.0,68.0,58,29.77,10.0,NW,16.1,23.0,N/A,,Partly Cloudy,310,2013-06-26 17:52:00
1:52 PM,87.1,59.0,39,29.76,10.0,NW,13.8,25.3,N/A,,Clear,310,2013-06-26 18:52:00
2:52 PM,88.0,59.0,37,29.77,10.0,NNW,20.7,26.5,N/A,,Clear,330,2013-06-26 19:52:00
3:52 PM,88.0,61.0,40,29.77,10.0,NW,19.6,27.6,N/A,,Clear,320,2013-06-26 20:52:00
4:52 PM,88.0,59.0,37,29.78,10.0,NW,17.3,26.5,N/A,,Clear,320,2013-06-26 21:52:00
5:52 PM,88.0,55.9,34,29.79,10.0,NNW,18.4,-,N/A,,Clear,330,2013-06-26 22:52:00
6:52 PM,87.1,57.0,36,29.79,10.0,NW,12.7,-,N/A,,Clear,320,2013-06-26 23:52:00
7:52 PM,84.0,57.9,41,29.80,10.0,NW,6.9,-,N/A,,Clear,320,2013-06-27 00:52:00
8:52 PM,77.0,64.0,64,29.81,10.0,NW,4.6,-,N/A,,Clear,310,2013-06-27 01:52:00
9:52 PM,73.0,62.1,68,29.83,10.0,WNW,5.8,-,N/A,,Clear,300,2013-06-27 02:52:00
10:52 PM,70.0,62.1,76,29.84,10.0,West,4.6,-,N/A,,Clear,280,2013-06-27 03:52:00
11:52 PM,70.0,62.1,76,29.86,10.0,WNW,3.5,-,N/A,,Clear,290,2013-06-27 04:52:00